Pošljite nam besedila, fotografije in posnetke z letalskimi motivi na info@sierra5.net

Predčasno zaprto letališče v Portorožu

Oceni ta prispevek
(1 glas)
06 Dec 20
Napisal
Objavljeno v Novice

Zahodna Slovenija je danes deležna deževja z občasnimi nevihtami in močnimi nalivi. Zaradi tega so svoja območja prestopile meteorne vode. Prišlo je do lokalnega poplavljanja okoliških cestišč in zelenih površin, zato se je danes predčasno zaprlo tudi letališče v Portorožu. Agencije Republike Slovenije poroča, da je danes med 6. in 19.uro na portoroškem letališču padlo več kot 74 litrov dežja na kvadratni meter. 

Po podatkih s katerimi razpolagamo, vzletno-pristajalna steza tekom dneva še ni bila poplavljena, vendar ob hitrem naraščanju meteornih voda le to tekom večera in noči ni nemogoče. Letališče se je zaprlo danes ob 15.uri in 28 minut po lokalnem času, dobro uro prej, kot je redni odpiralni čas letališča tekom zimskega voznega reda. Ali bo letališče jutri odprto, še ni znano.

Spodaj objavljamon današnja METAR sporočila ter slike ARSO spletnih kamer iz letališča v Portorožu:

METAR LJPZ 061500Z 12008KT 9999 -RA FEW034 OVC050 13/11 Q0997=

METAR LJPZ 061430Z 12012KT 080V140 9999 -RA FEW028 OVC050 13/11 Q0996=

METAR LJPZ 061400Z 12009KT 7000 -RA FEW028 OVC050 12/11 Q0996=

METAR LJPZ 061330Z 12011KT 9999 -SHRA FEW020CB SCT034 BKN065 13/11 Q0997 RESHRA=

METAR LJPZ 061300Z 17008KT 110V220 3000 SHRA VCTS FEW010 FEW020CB BKN040 13/12 Q0997=

METAR LJPZ 061230Z 16012KT 120V210 7000 -SHRA VCTS FEW010 FEW020CB BKN040 14/12 Q0997=

METAR LJPZ 061200Z 16006KT 110V240 9999 -SHRA VCTS FEW010 FEW020CB BKN033 13/12 Q0997 RESHRA=

METAR LJPZ 061130Z VRB02KT 3000 TS SHRA FEW010 SCT020CB BKN040 13/12 Q0998 RESHRA=

METAR LJPZ 061100Z VRB02KT 4000 TS SHRA FEW010 SCT020CB BKN030 13/12 Q0998=

METAR LJPZ 061030Z 12003KT 060V170 7000 -TSRA FEW030CB SCT033 BKN070 14/12 Q0999=

Letališče v Portorožu je bilo septembra 2010 deležno katastrofalnih poplav, ki so zalile vse manevrske površine letališča (fotografija spodaj). 

Fotografije: ARSO in lasten arhiv

 

Oddajte komentar

Prepričajte se, da vnesete vse obvezne podatke, označene z zvezdico (*). HTML koda ni dovoljena.


Koledar objav

« Oktober 2021 »
Pon Tor Sre Čet Pet Sob Ned
        1 2 3
4 5 6 7 8 9 10
11 12 13 14 15 16 17
18 19 20 21 22 23 24
25 26 27 28 29 30 31